sensor_id;sensor_type;location;lat;lon;timestamp;pressure;altitude;pressure_sealevel;temperature;humidity
59063;BME280;44851;45.648;9.004;2023-08-06T00:00:35;98027.56;;;21.64;53.43
59063;BME280;44851;45.648;9.004;2023-08-06T00:03:01;98024.28;;;21.73;53.93
59063;BME280;44851;45.648;9.004;2023-08-06T00:05:26;98024.97;;;21.80;53.55
59063;BME280;44851;45.648;9.004;2023-08-06T00:07:51;98019.19;;;21.84;53.75
59063;BME280;44851;45.648;9.004;2023-08-06T00:10:17;98020.22;;;21.83;53.83
59063;BME280;44851;45.648;9.004;2023-08-06T00:12:43;98012.28;;;21.83;53.54
59063;BME280;44851;45.648;9.004;2023-08-06T00:15:09;98012.50;;;21.93;53.72
59063;BME280;44851;45.648;9.004;2023-08-06T00:17:35;98006.84;;;21.89;53.52
59063;BME280;44851;45.648;9.004;2023-08-06T00:20:01;98009.53;;;21.77;54.22
59063;BME280;44851;45.648;9.004;2023-08-06T00:22:35;98000.81;;;21.65;54.38
59063;BME280;44851;45.648;9.004;2023-08-06T00:25:01;98005.97;;;21.72;53.49
59063;BME280;44851;45.648;9.004;2023-08-06T00:27:27;97995.22;;;21.78;53.85
59063;BME280;44851;45.648;9.004;2023-08-06T00:29:52;98004.03;;;21.67;54.33
59063;BME280;44851;45.648;9.004;2023-08-06T00:32:17;98006.31;;;21.75;53.93
59063;BME280;44851;45.648;9.004;2023-08-06T00:34:43;97998.44;;;21.80;54.04
59063;BME280;44851;45.648;9.004;2023-08-06T00:37:08;98001.00;;;21.75;54.08
59063;BME280;44851;45.648;9.004;2023-08-06T00:39:34;98003.56;;;21.70;54.25
59063;BME280;44851;45.648;9.004;2023-08-06T00:41:59;98004.22;;;21.77;53.97
59063;BME280;44851;45.648;9.004;2023-08-06T00:44:24;97996.25;;;21.77;54.27
59063;BME280;44851;45.648;9.004;2023-08-06T00:46:50;97996.03;;;21.79;54.04
59063;BME280;44851;45.648;9.004;2023-08-06T00:49:15;97995.00;;;21.80;54.24
59063;BME280;44851;45.648;9.004;2023-08-06T00:51:42;97995.94;;;21.86;53.97
59063;BME280;44851;45.648;9.004;2023-08-06T00:54:08;97991.53;;;21.79;53.91
59063;BME280;44851;45.648;9.004;2023-08-06T00:56:35;97991.44;;;21.86;53.45
59063;BME280;44851;45.648;9.004;2023-08-06T00:59:03;97991.78;;;21.90;53.54
59063;BME280;44851;45.648;9.004;2023-08-06T01:01:28;97983.69;;;21.85;53.73
59063;BME280;44851;45.648;9.004;2023-08-06T01:03:54;97989.34;;;21.88;53.36
59063;BME280;44851;45.648;9.004;2023-08-06T01:06:32;97986.47;;;21.90;53.89
59063;BME280;44851;45.648;9.004;2023-08-06T01:09:02;97976.75;;;21.84;54.06
59063;BME280;44851;45.648;9.004;2023-08-06T01:11:42;97975.50;;;21.86;53.72
59063;BME280;44851;45.648;9.004;2023-08-06T01:14:23;97969.84;;;21.83;53.29
59063;BME280;44851;45.648;9.004;2023-08-06T01:16:54;97965.94;;;21.85;54.14
59063;BME280;44851;45.648;9.004;2023-08-06T01:19:21;97951.75;;;21.79;54.37
59063;BME280;44851;45.648;9.004;2023-08-06T01:21:46;97952.13;;;21.71;54.30
59063;BME280;44851;45.648;9.004;2023-08-06T01:24:12;97958.38;;;21.65;54.10
59063;BME280;44851;45.648;9.004;2023-08-06T01:26:45;97964.09;;;21.86;54.29
59063;BME280;44851;45.648;9.004;2023-08-06T01:31:43;97968.69;;;21.90;53.62
59063;BME280;44851;45.648;9.004;2023-08-06T01:34:17;97964.91;;;21.86;53.77
59063;BME280;44851;45.648;9.004;2023-08-06T01:36:45;97973.91;;;21.85;56.60
59063;BME280;44851;45.648;9.004;2023-08-06T01:39:10;97975.53;;;21.74;58.89
59063;BME280;44851;45.648;9.004;2023-08-06T01:41:36;97985.69;;;21.66;61.02
59063;BME280;44851;45.648;9.004;2023-08-06T01:44:01;97979.38;;;21.55;64.19
59063;BME280;44851;45.648;9.004;2023-08-06T01:46:26;97987.97;;;21.34;64.65
59063;BME280;44851;45.648;9.004;2023-08-06T01:48:52;97978.88;;;21.06;65.04
59063;BME280;44851;45.648;9.004;2023-08-06T01:51:17;97978.22;;;20.99;66.25
59063;BME280;44851;45.648;9.004;2023-08-06T01:53:42;97962.19;;;20.94;68.21
59063;BME280;44851;45.648;9.004;2023-08-06T01:56:08;97963.22;;;20.93;66.99
59063;BME280;44851;45.648;9.004;2023-08-06T01:58:33;97975.91;;;20.91;67.66
59063;BME280;44851;45.648;9.004;2023-08-06T02:00:58;97966.78;;;20.87;67.88
59063;BME280;44851;45.648;9.004;2023-08-06T02:03:23;97969.69;;;20.85;68.14
59063;BME280;44851;45.648;9.004;2023-08-06T02:05:49;97964.81;;;20.82;67.52
59063;BME280;44851;45.648;9.004;2023-08-06T02:08:14;97953.44;;;20.82;66.22
59063;BME280;44851;45.648;9.004;2023-08-06T02:10:40;97963.91;;;20.76;66.98
59063;BME280;44851;45.648;9.004;2023-08-06T02:13:06;97959.22;;;20.79;66.53
59063;BME280;44851;45.648;9.004;2023-08-06T02:15:32;97951.16;;;20.73;66.74
59063;BME280;44851;45.648;9.004;2023-08-06T02:17:57;97948.38;;;20.68;66.28
59063;BME280;44851;45.648;9.004;2023-08-06T02:20:22;97946.53;;;20.57;66.34
59063;BME280;44851;45.648;9.004;2023-08-06T02:22:47;97941.25;;;20.57;66.56
59063;BME280;44851;45.648;9.004;2023-08-06T02:25:13;97938.56;;;20.45;66.25
59063;BME280;44851;45.648;9.004;2023-08-06T02:27:38;97932.13;;;20.41;66.50
59063;BME280;44851;45.648;9.004;2023-08-06T02:30:05;97928.81;;;20.46;66.15
59063;BME280;44851;45.648;9.004;2023-08-06T02:32:30;97929.22;;;20.31;66.40
59063;BME280;44851;45.648;9.004;2023-08-06T02:34:57;97923.94;;;20.31;67.43
59063;BME280;44851;45.648;9.004;2023-08-06T02:37:22;97913.53;;;20.30;66.92
59063;BME280;44851;45.648;9.004;2023-08-06T02:39:48;97915.19;;;20.31;67.86
59063;BME280;44851;45.648;9.004;2023-08-06T02:42:13;97920.22;;;20.20;66.58
59063;BME280;44851;45.648;9.004;2023-08-06T02:44:38;97921.16;;;20.14;67.18
59063;BME280;44851;45.648;9.004;2023-08-06T02:47:04;97915.84;;;20.14;66.76
59063;BME280;44851;45.648;9.004;2023-08-06T02:49:29;97912.59;;;20.12;66.19
59063;BME280;44851;45.648;9.004;2023-08-06T02:51:55;97910.19;;;19.99;66.24
59063;BME280;44851;45.648;9.004;2023-08-06T02:54:20;97910.38;;;19.97;64.78
59063;BME280;44851;45.648;9.004;2023-08-06T02:56:46;97903.84;;;20.00;63.77
59063;BME280;44851;45.648;9.004;2023-08-06T02:59:14;97901.22;;;20.00;62.07
59063;BME280;44851;45.648;9.004;2023-08-06T03:01:39;97898.53;;;19.88;62.95
59063;BME280;44851;45.648;9.004;2023-08-06T03:04:05;97897.25;;;19.79;61.31
59063;BME280;44851;45.648;9.004;2023-08-06T03:06:31;97884.13;;;19.72;60.04
59063;BME280;44851;45.648;9.004;2023-08-06T03:08:56;97888.38;;;19.73;60.63
59063;BME280;44851;45.648;9.004;2023-08-06T03:11:21;97888.91;;;19.64;60.17
59063;BME280;44851;45.648;9.004;2023-08-06T03:13:47;97884.72;;;19.56;60.41
59063;BME280;44851;45.648;9.004;2023-08-06T03:16:13;97884.94;;;19.55;60.79
59063;BME280;44851;45.648;9.004;2023-08-06T03:18:38;97883.78;;;19.51;60.52
59063;BME280;44851;45.648;9.004;2023-08-06T03:21:04;97889.88;;;19.51;60.66
59063;BME280;44851;45.648;9.004;2023-08-06T03:23:29;97880.13;;;19.52;60.97
59063;BME280;44851;45.648;9.004;2023-08-06T03:25:54;97876.97;;;19.43;61.15
59063;BME280;44851;45.648;9.004;2023-08-06T03:28:20;97883.84;;;19.44;61.63
59063;BME280;44851;45.648;9.004;2023-08-06T03:30:45;97881.91;;;19.39;60.24
59063;BME280;44851;45.648;9.004;2023-08-06T03:33:10;97885.34;;;19.40;60.73
59063;BME280;44851;45.648;9.004;2023-08-06T03:35:36;97878.31;;;19.34;60.50
59063;BME280;44851;45.648;9.004;2023-08-06T03:38:01;97889.28;;;19.19;60.39
59063;BME280;44851;45.648;9.004;2023-08-06T03:40:26;97891.53;;;19.15;59.30
59063;BME280;44851;45.648;9.004;2023-08-06T03:42:52;97891.63;;;19.09;59.06
59063;BME280;44851;45.648;9.004;2023-08-06T03:45:17;97891.63;;;19.09;59.26
59063;BME280;44851;45.648;9.004;2023-08-06T03:47:42;97889.56;;;19.11;59.43
59063;BME280;44851;45.648;9.004;2023-08-06T03:50:08;97896.78;;;19.04;59.54
59063;BME280;44851;45.648;9.004;2023-08-06T03:52:33;97894.34;;;18.84;59.59
59063;BME280;44851;45.648;9.004;2023-08-06T03:54:59;97903.72;;;18.80;59.95
59063;BME280;44851;45.648;9.004;2023-08-06T03:57:24;97903.28;;;18.83;59.59
59063;BME280;44851;45.648;9.004;2023-08-06T03:59:49;97899.50;;;18.72;59.34
59063;BME280;44851;45.648;9.004;2023-08-06T04:02:15;97898.06;;;18.76;58.58
59063;BME280;44851;45.648;9.004;2023-08-06T04:04:40;97902.81;;;18.67;58.45
59063;BME280;44851;45.648;9.004;2023-08-06T04:07:05;97903.09;;;18.59;58.23
59063;BME280;44851;45.648;9.004;2023-08-06T04:09:31;97893.06;;;18.43;58.35
59063;BME280;44851;45.648;9.004;2023-08-06T04:11:56;97902.72;;;18.56;58.73
59063;BME280;44851;45.648;9.004;2023-08-06T04:14:23;97895.59;;;18.56;58.06
59063;BME280;44851;45.648;9.004;2023-08-06T04:16:49;97903.53;;;18.56;59.03
59063;BME280;44851;45.648;9.004;2023-08-06T04:19:14;97903.78;;;18.48;57.51
59063;BME280;44851;45.648;9.004;2023-08-06T04:21:39;97905.84;;;18.46;56.39
59063;BME280;44851;45.648;9.004;2023-08-06T04:24:05;97903.63;;;18.43;56.90
59063;BME280;44851;45.648;9.004;2023-08-06T04:26:30;97899.53;;;18.47;55.83
59063;BME280;44851;45.648;9.004;2023-08-06T04:28:55;97896.31;;;18.45;55.24
59063;BME280;44851;45.648;9.004;2023-08-06T04:31:21;97901.16;;;18.48;54.74
59063;BME280;44851;45.648;9.004;2023-08-06T04:33:47;97903.94;;;18.53;54.09
59063;BME280;44851;45.648;9.004;2023-08-06T04:36:12;97914.09;;;18.56;54.82
59063;BME280;44851;45.648;9.004;2023-08-06T04:38:37;97911.44;;;18.56;55.33
59063;BME280;44851;45.648;9.004;2023-08-06T04:41:03;97920.09;;;18.63;54.99
59063;BME280;44851;45.648;9.004;2023-08-06T04:43:29;97915.25;;;18.60;54.15
59063;BME280;44851;45.648;9.004;2023-08-06T04:45:55;97912.03;;;18.58;54.50
59063;BME280;44851;45.648;9.004;2023-08-06T04:48:21;97916.50;;;18.58;55.80
59063;BME280;44851;45.648;9.004;2023-08-06T04:50:48;97910.88;;;18.54;55.46
59063;BME280;44851;45.648;9.004;2023-08-06T04:53:14;97909.84;;;18.55;53.89
59063;BME280;44851;45.648;9.004;2023-08-06T04:55:40;97906.88;;;18.45;55.18
59063;BME280;44851;45.648;9.004;2023-08-06T04:58:06;97922.38;;;18.35;54.54
59063;BME280;44851;45.648;9.004;2023-08-06T05:00:31;97911.69;;;18.48;54.50
59063;BME280;44851;45.648;9.004;2023-08-06T05:02:59;97913.66;;;18.59;53.92
59063;BME280;44851;45.648;9.004;2023-08-06T05:05:25;97905.19;;;18.51;55.89
59063;BME280;44851;45.648;9.004;2023-08-06T05:07:50;97904.56;;;18.55;56.15
59063;BME280;44851;45.648;9.004;2023-08-06T05:10:16;97896.31;;;18.45;56.59
59063;BME280;44851;45.648;9.004;2023-08-06T05:12:41;97906.38;;;18.55;55.03
59063;BME280;44851;45.648;9.004;2023-08-06T05:15:07;97907.53;;;18.59;55.55
59063;BME280;44851;45.648;9.004;2023-08-06T05:17:33;97905.34;;;18.56;55.29
59063;BME280;44851;45.648;9.004;2023-08-06T05:19:59;97912.47;;;18.55;55.69
59063;BME280;44851;45.648;9.004;2023-08-06T05:22:24;97913.50;;;18.54;55.03
59063;BME280;44851;45.648;9.004;2023-08-06T05:24:50;97902.28;;;18.59;56.20
59063;BME280;44851;45.648;9.004;2023-08-06T05:27:15;97898.25;;;18.56;55.45
59063;BME280;44851;45.648;9.004;2023-08-06T05:29:40;97910.53;;;18.44;55.42
59063;BME280;44851;45.648;9.004;2023-08-06T05:32:06;97912.47;;;18.55;55.33
59063;BME280;44851;45.648;9.004;2023-08-06T05:34:31;97909.22;;;18.53;55.01
59063;BME280;44851;45.648;9.004;2023-08-06T05:36:57;97907.19;;;18.55;56.33
59063;BME280;44851;45.648;9.004;2023-08-06T05:39:22;97902.28;;;18.59;55.58
59063;BME280;44851;45.648;9.004;2023-08-06T05:41:47;97901.63;;;18.63;55.03
59063;BME280;44851;45.648;9.004;2023-08-06T05:44:13;97910.50;;;18.69;53.12
59063;BME280;44851;45.648;9.004;2023-08-06T05:46:38;97901.34;;;18.72;52.67
59063;BME280;44851;45.648;9.004;2023-08-06T05:49:03;97912.25;;;18.75;51.89
59063;BME280;44851;45.648;9.004;2023-08-06T05:51:30;97903.72;;;18.80;50.86
59063;BME280;44851;45.648;9.004;2023-08-06T05:53:55;97914.16;;;18.93;50.67
59063;BME280;44851;45.648;9.004;2023-08-06T05:56:20;97912.53;;;18.92;50.92
59063;BME280;44851;45.648;9.004;2023-08-06T05:58:46;97906.38;;;18.98;50.39
59063;BME280;44851;45.648;9.004;2023-08-06T06:01:12;97923.84;;;18.99;49.73
59063;BME280;44851;45.648;9.004;2023-08-06T06:03:38;97924.72;;;19.11;49.32
59063;BME280;44851;45.648;9.004;2023-08-06T06:06:03;97928.69;;;19.20;47.56
59063;BME280;44851;45.648;9.004;2023-08-06T06:08:29;97940.56;;;19.30;47.71
59063;BME280;44851;45.648;9.004;2023-08-06T06:10:54;97930.13;;;19.35;49.67
59063;BME280;44851;45.648;9.004;2023-08-06T06:13:20;97943.69;;;19.38;47.72
59063;BME280;44851;45.648;9.004;2023-08-06T06:15:46;97946.75;;;19.54;45.76
59063;BME280;44851;45.648;9.004;2023-08-06T06:18:12;97947.72;;;19.59;46.67
59063;BME280;44851;45.648;9.004;2023-08-06T06:20:37;97947.91;;;19.76;47.38
59063;BME280;44851;45.648;9.004;2023-08-06T06:23:02;97950.75;;;19.93;46.47
59063;BME280;44851;45.648;9.004;2023-08-06T06:25:28;97949.66;;;20.12;45.59
59063;BME280;44851;45.648;9.004;2023-08-06T06:27:53;97952.94;;;20.38;44.50
59063;BME280;44851;45.648;9.004;2023-08-06T06:30:18;97950.44;;;20.43;43.28
59063;BME280;44851;45.648;9.004;2023-08-06T06:32:44;97952.28;;;20.77;43.21
59063;BME280;44851;45.648;9.004;2023-08-06T06:35:09;97963.22;;;21.05;42.00
59063;BME280;44851;45.648;9.004;2023-08-06T06:37:35;97961.47;;;21.34;40.84
59063;BME280;44851;45.648;9.004;2023-08-06T06:40:00;97956.28;;;21.67;43.16
59063;BME280;44851;45.648;9.004;2023-08-06T06:42:26;97962.75;;;22.00;41.76
59063;BME280;44851;45.648;9.004;2023-08-06T06:44:52;97963.19;;;22.25;40.67
59063;BME280;44851;45.648;9.004;2023-08-06T06:47:17;97958.22;;;22.46;39.41
59063;BME280;44851;45.648;9.004;2023-08-06T06:49:42;97967.81;;;22.80;40.10
59063;BME280;44851;45.648;9.004;2023-08-06T06:52:08;97959.94;;;23.07;38.62
59063;BME280;44851;45.648;9.004;2023-08-06T06:54:33;97954.75;;;23.18;39.15
59063;BME280;44851;45.648;9.004;2023-08-06T06:56:58;97944.69;;;23.42;38.19
59063;BME280;44851;45.648;9.004;2023-08-06T06:59:24;97938.63;;;23.68;39.63
59063;BME280;44851;45.648;9.004;2023-08-06T07:01:49;97938.94;;;23.99;38.18
59063;BME280;44851;45.648;9.004;2023-08-06T07:04:14;97933.16;;;24.07;37.45
59063;BME280;44851;45.648;9.004;2023-08-06T07:06:40;97927.16;;;24.22;37.15
59063;BME280;44851;45.648;9.004;2023-08-06T07:09:05;97934.41;;;24.58;37.23
59063;BME280;44851;45.648;9.004;2023-08-06T07:11:31;97929.44;;;24.72;36.63
59063;BME280;44851;45.648;9.004;2023-08-06T07:13:57;97928.88;;;24.70;35.75
59063;BME280;44851;45.648;9.004;2023-08-06T07:16:25;97930.81;;;24.85;34.14
59063;BME280;44851;45.648;9.004;2023-08-06T07:18:51;97919.22;;;25.11;34.96
59063;BME280;44851;45.648;9.004;2023-08-06T07:21:17;97924.69;;;25.32;33.24
59063;BME280;44851;45.648;9.004;2023-08-06T07:23:43;97927.94;;;25.49;33.51
59063;BME280;44851;45.648;9.004;2023-08-06T07:26:08;97934.59;;;25.52;31.92
59063;BME280;44851;45.648;9.004;2023-08-06T07:28:34;97932.19;;;25.50;30.75
59063;BME280;44851;45.648;9.004;2023-08-06T07:30:59;97939.53;;;25.90;31.75
59063;BME280;44851;45.648;9.004;2023-08-06T07:33:25;97928.88;;;26.01;30.87
59063;BME280;44851;45.648;9.004;2023-08-06T07:35:50;97935.56;;;26.24;31.37
59063;BME280;44851;45.648;9.004;2023-08-06T07:38:15;97929.94;;;26.40;28.61
59063;BME280;44851;45.648;9.004;2023-08-06T07:40:41;97928.34;;;26.60;29.36
59063;BME280;44851;45.648;9.004;2023-08-06T07:43:06;97939.25;;;26.84;28.85
59063;BME280;44851;45.648;9.004;2023-08-06T07:45:35;97937.34;;;26.99;28.20
59063;BME280;44851;45.648;9.004;2023-08-06T07:48:01;97938.38;;;27.24;28.02
59063;BME280;44851;45.648;9.004;2023-08-06T07:50:26;97950.16;;;27.18;26.83
59063;BME280;44851;45.648;9.004;2023-08-06T07:52:52;97946.34;;;27.39;28.60
59063;BME280;44851;45.648;9.004;2023-08-06T07:55:17;97952.72;;;27.43;28.49
59063;BME280;44851;45.648;9.004;2023-08-06T07:57:42;97953.19;;;27.66;28.21
59063;BME280;44851;45.648;9.004;2023-08-06T08:00:08;97945.63;;;27.78;26.64
59063;BME280;44851;45.648;9.004;2023-08-06T08:02:34;97945.84;;;27.87;26.96
59063;BME280;44851;45.648;9.004;2023-08-06T08:05:00;97944.72;;;27.93;24.93
59063;BME280;44851;45.648;9.004;2023-08-06T08:07:25;97948.59;;;28.11;24.89
59063;BME280;44851;45.648;9.004;2023-08-06T08:09:53;97950.88;;;27.93;23.76
59063;BME280;44851;45.648;9.004;2023-08-06T08:12:18;97946.50;;;28.08;24.14
59063;BME280;44851;45.648;9.004;2023-08-06T08:14:44;97945.34;;;28.24;24.86
59063;BME280;44851;45.648;9.004;2023-08-06T08:17:10;97958.81;;;28.09;22.77
59063;BME280;44851;45.648;9.004;2023-08-06T08:19:36;97956.00;;;28.29;22.64
59063;BME280;44851;45.648;9.004;2023-08-06T08:22:01;97961.69;;;28.17;22.15
59063;BME280;44851;45.648;9.004;2023-08-06T08:24:27;97964.84;;;28.30;24.11
59063;BME280;44851;45.648;9.004;2023-08-06T08:26:53;97965.09;;;28.62;22.91
59063;BME280;44851;45.648;9.004;2023-08-06T08:29:22;97968.97;;;28.80;22.53
59063;BME280;44851;45.648;9.004;2023-08-06T08:31:47;97968.47;;;28.78;21.11
59063;BME280;44851;45.648;9.004;2023-08-06T08:34:18;97959.91;;;28.71;21.49
59063;BME280;44851;45.648;9.004;2023-08-06T08:36:44;97964.19;;;28.77;22.30
59063;BME280;44851;45.648;9.004;2023-08-06T08:39:12;97976.78;;;29.05;22.15
59063;BME280;44851;45.648;9.004;2023-08-06T08:41:38;97978.72;;;29.00;21.29
59063;BME280;44851;45.648;9.004;2023-08-06T08:44:08;97968.66;;;29.11;20.94
59063;BME280;44851;45.648;9.004;2023-08-06T08:46:38;97974.28;;;29.38;20.53
59063;BME280;44851;45.648;9.004;2023-08-06T08:49:05;97977.41;;;29.21;19.82
59063;BME280;44851;45.648;9.004;2023-08-06T08:51:33;97972.09;;;29.40;22.21
59063;BME280;44851;45.648;9.004;2023-08-06T08:53:58;97976.91;;;29.43;20.77
59063;BME280;44851;45.648;9.004;2023-08-06T08:56:24;97971.75;;;29.47;21.06
59063;BME280;44851;45.648;9.004;2023-08-06T08:58:50;97975.38;;;29.56;20.33
59063;BME280;44851;45.648;9.004;2023-08-06T09:01:18;97964.88;;;29.60;20.10
59063;BME280;44851;45.648;9.004;2023-08-06T09:03:47;97968.31;;;29.84;23.29
59063;BME280;44851;45.648;9.004;2023-08-06T09:06:13;97972.63;;;29.85;21.17
59063;BME280;44851;45.648;9.004;2023-08-06T09:09:01;97975.00;;;29.87;21.38
59063;BME280;44851;45.648;9.004;2023-08-06T09:11:35;97972.34;;;29.81;20.35
59063;BME280;44851;45.648;9.004;2023-08-06T09:14:06;97970.88;;;29.94;21.61
59063;BME280;44851;45.648;9.004;2023-08-06T09:16:37;97973.13;;;30.06;22.29
59063;BME280;44851;45.648;9.004;2023-08-06T09:19:13;97978.34;;;30.16;20.25
59063;BME280;44851;45.648;9.004;2023-08-06T09:21:40;97979.44;;;29.96;20.69
59063;BME280;44851;45.648;9.004;2023-08-06T09:24:10;97976.75;;;29.96;20.48
59063;BME280;44851;45.648;9.004;2023-08-06T09:26:40;97975.78;;;29.87;19.82
59063;BME280;44851;45.648;9.004;2023-08-06T09:29:07;97975.91;;;29.77;19.35
59063;BME280;44851;45.648;9.004;2023-08-06T09:31:36;97981.44;;;30.04;20.67
59063;BME280;44851;45.648;9.004;2023-08-06T09:34:10;97970.78;;;30.18;20.23
59063;BME280;44851;45.648;9.004;2023-08-06T09:36:40;97981.66;;;30.27;20.02
59063;BME280;44851;45.648;9.004;2023-08-06T09:39:12;97975.03;;;30.38;21.32
59063;BME280;44851;45.648;9.004;2023-08-06T09:41:38;97974.91;;;30.48;20.75
59063;BME280;44851;45.648;9.004;2023-08-06T09:44:04;97972.59;;;30.23;19.02
59063;BME280;44851;45.648;9.004;2023-08-06T09:46:31;97970.69;;;30.42;19.54
59063;BME280;44851;45.648;9.004;2023-08-06T09:48:57;97965.34;;;30.56;21.08
59063;BME280;44851;45.648;9.004;2023-08-06T09:51:22;97969.09;;;30.87;20.72
59063;BME280;44851;45.648;9.004;2023-08-06T09:53:48;97973.97;;;30.85;19.69
59063;BME280;44851;45.648;9.004;2023-08-06T09:56:15;97958.91;;;30.38;17.83
59063;BME280;44851;45.648;9.004;2023-08-06T09:58:41;97966.91;;;30.43;19.19
59063;BME280;44851;45.648;9.004;2023-08-06T10:01:07;97957.19;;;30.47;19.45
59063;BME280;44851;45.648;9.004;2023-08-06T10:03:33;97967.97;;;30.75;19.38
59063;BME280;44851;45.648;9.004;2023-08-06T10:05:59;97959.72;;;30.85;19.48
59063;BME280;44851;45.648;9.004;2023-08-06T10:08:27;97972.56;;;30.74;17.71
59063;BME280;44851;45.648;9.004;2023-08-06T10:10:52;97961.56;;;31.03;19.54
59063;BME280;44851;45.648;9.004;2023-08-06T10:13:19;97966.47;;;30.69;20.31
59063;BME280;44851;45.648;9.004;2023-08-06T10:15:48;97964.44;;;31.21;20.20
59063;BME280;44851;45.648;9.004;2023-08-06T10:18:14;97972.63;;;31.16;18.63
59063;BME280;44851;45.648;9.004;2023-08-06T10:20:43;97970.03;;;31.24;19.70
59063;BME280;44851;45.648;9.004;2023-08-06T10:23:08;97968.22;;;30.92;18.55
59063;BME280;44851;45.648;9.004;2023-08-06T10:25:34;97979.50;;;31.22;18.33
59063;BME280;44851;45.648;9.004;2023-08-06T10:28:00;97968.44;;;30.96;17.69
59063;BME280;44851;45.648;9.004;2023-08-06T10:30:32;97972.00;;;31.05;18.47
59063;BME280;44851;45.648;9.004;2023-08-06T10:33:02;97973.03;;;31.23;17.58
59063;BME280;44851;45.648;9.004;2023-08-06T10:37:58;97971.81;;;31.15;16.81
59063;BME280;44851;45.648;9.004;2023-08-06T10:40:23;97971.63;;;31.11;18.61
59063;BME280;44851;45.648;9.004;2023-08-06T10:42:49;97965.84;;;31.04;16.12
59063;BME280;44851;45.648;9.004;2023-08-06T10:45:17;97968.94;;;31.11;17.89
59063;BME280;44851;45.648;9.004;2023-08-06T10:47:43;97963.63;;;30.93;15.44
59063;BME280;44851;45.648;9.004;2023-08-06T10:50:14;97961.81;;;30.88;17.25
59063;BME280;44851;45.648;9.004;2023-08-06T10:52:42;97957.22;;;30.75;17.68
59063;BME280;44851;45.648;9.004;2023-08-06T10:55:08;97941.47;;;30.82;18.10
59063;BME280;44851;45.648;9.004;2023-08-06T10:57:34;97945.78;;;31.10;19.30
59063;BME280;44851;45.648;9.004;2023-08-06T10:59:59;97953.28;;;31.27;18.36
59063;BME280;44851;45.648;9.004;2023-08-06T11:02:25;97960.47;;;31.46;16.27
59063;BME280;44851;45.648;9.004;2023-08-06T11:04:50;97951.75;;;31.62;17.14
59063;BME280;44851;45.648;9.004;2023-08-06T11:07:16;97956.59;;;31.74;16.78
59063;BME280;44851;45.648;9.004;2023-08-06T11:09:42;97958.50;;;31.74;16.48
59063;BME280;44851;45.648;9.004;2023-08-06T11:12:10;97961.06;;;32.29;17.10
59063;BME280;44851;45.648;9.004;2023-08-06T11:14:36;97954.66;;;32.25;16.80
59063;BME280;44851;45.648;9.004;2023-08-06T11:17:01;97952.97;;;32.51;16.99
59063;BME280;44851;45.648;9.004;2023-08-06T11:19:27;97957.25;;;32.52;17.78
59063;BME280;44851;45.648;9.004;2023-08-06T11:21:52;97947.59;;;32.37;16.71
59063;BME280;44851;45.648;9.004;2023-08-06T11:24:17;97947.56;;;32.51;15.89
59063;BME280;44851;45.648;9.004;2023-08-06T11:26:43;97938.44;;;32.70;18.68
59063;BME280;44851;45.648;9.004;2023-08-06T11:29:10;97941.91;;;32.61;17.58
59063;BME280;44851;45.648;9.004;2023-08-06T11:31:36;97932.44;;;32.73;15.42
59063;BME280;44851;45.648;9.004;2023-08-06T11:34:01;97936.47;;;32.53;16.99
59063;BME280;44851;45.648;9.004;2023-08-06T11:38:56;97944.88;;;32.29;16.98
59063;BME280;44851;45.648;9.004;2023-08-06T11:41:21;97937.84;;;32.73;15.78
59063;BME280;44851;45.648;9.004;2023-08-06T11:43:47;97931.97;;;32.48;14.23
59063;BME280;44851;45.648;9.004;2023-08-06T11:46:12;97931.66;;;32.72;15.64
59063;BME280;44851;45.648;9.004;2023-08-06T11:49:10;97936.22;;;32.40;15.20
59063;BME280;44851;45.648;9.004;2023-08-06T11:51:35;97933.09;;;32.87;17.18
59063;BME280;44851;45.648;9.004;2023-08-06T11:54:01;97934.94;;;33.00;16.34
59063;BME280;44851;45.648;9.004;2023-08-06T11:56:28;97940.06;;;33.10;17.95
59063;BME280;44851;45.648;9.004;2023-08-06T11:58:54;97937.22;;;33.24;17.21
59063;BME280;44851;45.648;9.004;2023-08-06T12:01:20;97925.59;;;33.06;14.11
59063;BME280;44851;45.648;9.004;2023-08-06T12:03:45;97933.03;;;32.70;15.07
59063;BME280;44851;45.648;9.004;2023-08-06T12:06:10;97926.69;;;31.76;13.13
59063;BME280;44851;45.648;9.004;2023-08-06T12:08:36;97928.88;;;31.74;14.38
59063;BME280;44851;45.648;9.004;2023-08-06T12:11:03;97927.66;;;31.80;14.02
59063;BME280;44851;45.648;9.004;2023-08-06T12:13:28;97932.31;;;32.02;14.20
59063;BME280;44851;45.648;9.004;2023-08-06T12:15:54;97943.56;;;32.04;13.00
59063;BME280;44851;45.648;9.004;2023-08-06T12:18:22;97946.41;;;31.85;13.95
59063;BME280;44851;45.648;9.004;2023-08-06T12:20:47;97946.06;;;32.00;14.24
59063;BME280;44851;45.648;9.004;2023-08-06T12:23:13;97935.72;;;32.16;14.10
59063;BME280;44851;45.648;9.004;2023-08-06T12:25:41;97936.53;;;31.94;13.43
59063;BME280;44851;45.648;9.004;2023-08-06T12:28:07;97932.31;;;31.88;13.08
59063;BME280;44851;45.648;9.004;2023-08-06T12:30:33;97930.09;;;31.68;13.88
59063;BME280;44851;45.648;9.004;2023-08-06T12:32:59;97919.63;;;31.88;14.48
59063;BME280;44851;45.648;9.004;2023-08-06T12:35:24;97927.56;;;32.30;13.73
59063;BME280;44851;45.648;9.004;2023-08-06T12:37:50;97930.03;;;32.40;14.67
59063;BME280;44851;45.648;9.004;2023-08-06T12:40:19;97919.41;;;32.75;14.86
59063;BME280;44851;45.648;9.004;2023-08-06T12:42:44;97924.75;;;32.57;14.66
59063;BME280;44851;45.648;9.004;2023-08-06T12:45:10;97927.56;;;32.52;13.92
59063;BME280;44851;45.648;9.004;2023-08-06T12:47:35;97924.19;;;32.78;14.76
59063;BME280;44851;45.648;9.004;2023-08-06T12:50:00;97927.56;;;32.52;14.78
59063;BME280;44851;45.648;9.004;2023-08-06T12:52:25;97932.41;;;32.41;13.40
59063;BME280;44851;45.648;9.004;2023-08-06T12:54:51;97944.00;;;32.20;13.97
59063;BME280;44851;45.648;9.004;2023-08-06T12:57:16;97935.50;;;32.04;13.36
59063;BME280;44851;45.648;9.004;2023-08-06T12:59:42;97943.00;;;31.93;13.74
59063;BME280;44851;45.648;9.004;2023-08-06T13:02:07;97927.44;;;32.35;13.11